Terminal Aerodrome Forecast
Issued by NWS

Home | Current Version | Previous Version | Text Only | Print | Product List | Glossary On
Versions: 1 2 3 4 5 6 7 8 9 10 11 12 13 14 15 16 17 18 19 20 21 22 23 24 25 26
000
FTUS44 KMAF 252320
TAFINK
TAF
KINK 252320Z 2600/2624 13010KT P6SM SCT050 BKN100
      TEMPO 2600/2603 VRB25G40KT 1SM TSRA BR BKN030CB
     FM260500 12011KT P6SM OVC025
     FM262000 05009KT P6SM -SHRA BKN010=

USA.gov is the U.S. government's official web portal to all federal, state and local government web resources and services.